createdAt,value
2022-12-23T00:01:27.274Z,8.04
2022-12-23T00:04:13.997Z,8.15
2022-12-23T00:07:00.535Z,8.22
2022-12-23T00:09:46.864Z,8.30
2022-12-23T00:12:51.858Z,8.28
2022-12-23T00:15:38.384Z,8.55
2022-12-23T00:18:24.596Z,8.45
2022-12-23T00:21:13.745Z,8.26
2022-12-23T00:23:59.854Z,8.44
2022-12-23T00:26:46.340Z,8.34
2022-12-23T00:29:32.831Z,8.33
2022-12-23T00:32:19.367Z,8.24
2022-12-23T00:35:06.204Z,7.98
2022-12-23T00:37:52.768Z,8.31
2022-12-23T00:40:58.414Z,8.24
2022-12-23T00:43:44.554Z,8.18
2022-12-23T00:46:31.835Z,8.28
2022-12-23T00:49:38.397Z,8.32
2022-12-23T00:52:24.959Z,8.23
2022-12-23T00:55:11.134Z,8.22
2022-12-23T00:57:57.726Z,8.08
2022-12-23T01:01:03.517Z,8.13
2022-12-23T01:04:08.691Z,8.44
2022-12-23T01:06:54.890Z,8.30
2022-12-23T01:09:41.204Z,8.44
2022-12-23T01:12:27.642Z,8.28
2022-12-23T01:15:14.167Z,8.28
2022-12-23T01:18:00.304Z,8.23
2022-12-23T01:20:46.549Z,8.19
2022-12-23T01:23:33.616Z,8.15
2022-12-23T01:26:19.960Z,8.31
2022-12-23T01:29:06.396Z,8.55
2022-12-23T01:31:52.733Z,8.94
2022-12-23T01:34:39.277Z,9.04
2022-12-23T01:37:25.359Z,9.70
2022-12-23T01:40:11.755Z,9.86
2022-12-23T01:42:57.947Z,10.51
2022-12-23T01:45:44.886Z,10.67
2022-12-23T01:48:31.006Z,10.75
2022-12-23T01:51:27.155Z,11.00
2022-12-23T01:54:13.626Z,11.08
2022-12-23T01:57:00.313Z,11.22
2022-12-23T02:00:05.665Z,11.27
2022-12-23T02:03:11.041Z,11.42
2022-12-23T02:06:19.304Z,11.45
2022-12-23T02:09:17.316Z,11.33
2022-12-23T02:12:25.416Z,11.42
2022-12-23T02:15:36.663Z,11.46
2022-12-23T02:18:41.730Z,11.48
2022-12-23T02:21:37.291Z,11.49
2022-12-23T02:24:57.176Z,11.50
2022-12-23T02:28:13.075Z,11.39
2022-12-23T02:31:10.421Z,11.50
2022-12-23T02:34:17.172Z,11.42
2022-12-23T02:37:27.984Z,11.58
2022-12-23T02:40:37.685Z,11.61
2022-12-23T02:43:44.065Z,11.61
2022-12-23T02:46:36.247Z,11.53
2022-12-23T02:49:32.707Z,11.36
2022-12-23T02:52:23.168Z,11.46
2022-12-23T02:55:13.941Z,11.42
2022-12-23T02:58:05.056Z,11.44
2022-12-23T03:00:52.296Z,11.41
2022-12-23T03:03:40.314Z,11.43
2022-12-23T03:06:33.112Z,11.46
2022-12-23T03:09:51.571Z,11.39
2022-12-23T03:13:03.235Z,11.28
2022-12-23T03:16:19.423Z,11.27
2022-12-23T03:19:32.437Z,11.33
2022-12-23T03:22:30.914Z,11.30
2022-12-23T03:25:51.994Z,11.33
2022-12-23T03:28:44.932Z,11.24
2022-12-23T03:31:34.662Z,11.21
2022-12-23T03:34:26.717Z,11.26
2022-12-23T03:37:16.180Z,11.31
2022-12-23T03:40:13.394Z,11.27
2022-12-23T03:43:09.159Z,11.29
2022-12-23T03:46:01.072Z,11.31
2022-12-23T03:48:55.486Z,11.28
2022-12-23T03:52:21.197Z,11.16
2022-12-23T03:55:12.215Z,11.21
2022-12-23T03:58:03.089Z,11.22
2022-12-23T04:01:05.579Z,11.17
2022-12-23T04:04:03.447Z,11.13
2022-12-23T04:07:05.049Z,11.17
2022-12-23T04:09:53.201Z,11.26
2022-12-23T04:12:40.381Z,11.31
2022-12-23T04:15:27.742Z,11.40
2022-12-23T04:18:16.181Z,11.33
2022-12-23T04:21:02.528Z,11.36
2022-12-23T04:23:48.945Z,11.25
2022-12-23T04:26:35.510Z,11.30
2022-12-23T04:29:21.667Z,11.25
2022-12-23T04:32:08.479Z,11.13
2022-12-23T04:34:54.925Z,11.15
2022-12-23T04:37:41.393Z,11.04
2022-12-23T04:40:27.889Z,10.92
2022-12-23T04:43:14.932Z,10.82
2022-12-23T04:46:01.502Z,10.80
2022-12-23T04:48:47.920Z,10.72
2022-12-23T04:51:34.691Z,10.70
2022-12-23T04:54:21.043Z,10.62
2022-12-23T04:57:07.392Z,10.56
2022-12-23T04:59:53.647Z,10.73
2022-12-23T05:02:40.021Z,10.74
2022-12-23T05:05:26.387Z,10.79
2022-12-23T05:08:12.760Z,10.66
2022-12-23T05:10:59.170Z,10.76
2022-12-23T05:13:45.578Z,10.80
2022-12-23T05:16:32.197Z,10.80
2022-12-23T05:19:18.708Z,10.79
2022-12-23T05:22:05.202Z,10.74
2022-12-23T05:24:51.562Z,10.81
2022-12-23T05:27:38.014Z,10.77
2022-12-23T05:30:24.196Z,10.76
2022-12-23T05:33:10.728Z,10.70
2022-12-23T05:35:57.800Z,10.68
2022-12-23T05:38:44.170Z,10.68
2022-12-23T05:41:30.459Z,10.73
2022-12-23T05:44:16.658Z,10.78
2022-12-23T05:47:03.000Z,10.87
2022-12-23T05:49:49.438Z,11.05
2022-12-23T05:52:35.931Z,11.04
2022-12-23T05:55:22.283Z,11.03
2022-12-23T05:58:08.880Z,11.17
2022-12-23T06:00:55.187Z,11.12
2022-12-23T06:03:42.008Z,11.05
2022-12-23T06:06:28.841Z,11.18
2022-12-23T06:09:15.216Z,11.29
2022-12-23T06:12:01.749Z,11.21
2022-12-23T06:14:48.323Z,11.31
2022-12-23T06:17:34.758Z,11.24
2022-12-23T06:20:21.350Z,11.24
2022-12-23T06:23:08.204Z,11.26
2022-12-23T06:26:01.802Z,11.15
2022-12-23T06:28:48.273Z,11.13
2022-12-23T06:31:34.533Z,11.21
2022-12-23T06:34:20.936Z,11.16
2022-12-23T06:37:07.548Z,11.18
2022-12-23T06:39:53.804Z,11.18
2022-12-23T06:42:40.093Z,11.18
2022-12-23T06:45:26.728Z,11.17
2022-12-23T06:48:13.272Z,11.15
2022-12-23T06:50:59.468Z,11.09
2022-12-23T06:53:45.827Z,10.99
2022-12-23T06:56:34.185Z,11.07
2022-12-23T06:59:20.579Z,11.12
2022-12-23T07:02:07.518Z,11.16
2022-12-23T07:04:54.255Z,11.08
2022-12-23T07:07:41.080Z,11.06
2022-12-23T07:10:27.207Z,11.04
2022-12-23T07:13:13.898Z,11.00
2022-12-23T07:16:05.838Z,11.22
2022-12-23T07:18:52.502Z,11.11
2022-12-23T07:21:38.967Z,11.03
2022-12-23T07:24:25.371Z,11.12
2022-12-23T07:27:11.840Z,11.16
2022-12-23T07:29:58.203Z,11.21
2022-12-23T07:32:47.863Z,11.26
2022-12-23T07:35:34.252Z,11.15
2022-12-23T07:38:21.213Z,11.10
2022-12-23T07:41:07.680Z,11.10
2022-12-23T07:43:54.057Z,11.10
2022-12-23T07:46:40.767Z,11.19
2022-12-23T07:49:27.072Z,11.22
2022-12-23T07:52:13.602Z,11.30
2022-12-23T07:54:59.882Z,11.42
2022-12-23T07:57:50.544Z,11.33
2022-12-23T08:00:36.834Z,11.43
2022-12-23T08:03:23.245Z,11.49
2022-12-23T08:06:15.230Z,11.46
2022-12-23T08:09:02.232Z,11.47
2022-12-23T08:11:48.742Z,11.46
2022-12-23T08:14:35.061Z,11.27
2022-12-23T08:17:22.017Z,11.50
2022-12-23T08:20:08.788Z,11.50
2022-12-23T08:22:55.393Z,11.50
2022-12-23T08:25:41.693Z,11.44
2022-12-23T08:28:28.871Z,11.48
2022-12-23T08:31:19.738Z,11.61
2022-12-23T08:34:06.328Z,11.61
2022-12-23T08:36:52.624Z,11.40
2022-12-23T08:39:39.222Z,11.66
2022-12-23T08:42:25.789Z,11.70
2022-12-23T08:45:12.510Z,11.48
2022-12-23T08:47:59.090Z,11.61
2022-12-23T08:50:46.486Z,11.66
2022-12-23T08:53:34.791Z,11.65
2022-12-23T08:56:23.346Z,11.71
2022-12-23T08:59:19.185Z,11.68
2022-12-23T09:02:06.551Z,11.62
2022-12-23T09:04:53.305Z,11.71
2022-12-23T09:07:39.551Z,11.71
2022-12-23T09:10:26.070Z,11.81
2022-12-23T09:13:17.895Z,11.93
2022-12-23T09:16:09.628Z,11.89
2022-12-23T09:18:56.511Z,11.99
2022-12-23T09:21:42.855Z,11.94
2022-12-23T09:24:29.129Z,11.89
2022-12-23T09:27:15.420Z,11.96
2022-12-23T09:30:02.020Z,12.05
2022-12-23T09:32:48.609Z,12.04
2022-12-23T09:35:35.326Z,11.94
2022-12-23T09:38:21.542Z,11.65
2022-12-23T09:41:10.748Z,11.79
2022-12-23T09:44:36.540Z,11.82
2022-12-23T09:47:26.987Z,11.84
2022-12-23T09:50:21.714Z,11.84
2022-12-23T09:53:20.663Z,11.90
2022-12-23T09:56:18.356Z,11.82
2022-12-23T09:59:35.730Z,11.95
2022-12-23T10:02:28.458Z,11.93
2022-12-23T10:05:49.002Z,11.85
2022-12-23T10:08:39.993Z,11.86
2022-12-23T10:11:39.976Z,11.79
2022-12-23T10:14:31.275Z,11.75
2022-12-23T10:17:28.910Z,11.81
2022-12-23T10:20:20.985Z,11.72
2022-12-23T10:23:22.902Z,11.90
2022-12-23T10:26:20.169Z,11.99
2022-12-23T10:29:19.315Z,11.83
2022-12-23T10:32:42.514Z,11.79
2022-12-23T10:35:57.771Z,11.69
2022-12-23T10:39:05.644Z,11.83
2022-12-23T10:42:33.267Z,11.85
2022-12-23T10:45:36.365Z,11.84
2022-12-23T10:48:33.070Z,11.72
2022-12-23T10:51:22.713Z,11.75
2022-12-23T10:54:15.444Z,11.82
2022-12-23T10:57:03.340Z,11.87
2022-12-23T10:59:49.607Z,11.97
2022-12-23T11:02:49.008Z,11.97
2022-12-23T11:05:36.109Z,12.02
2022-12-23T11:08:26.007Z,12.01
2022-12-23T11:11:12.633Z,12.02
2022-12-23T11:13:58.940Z,12.02
2022-12-23T11:16:46.847Z,12.05
2022-12-23T11:19:34.634Z,11.97
2022-12-23T11:22:25.438Z,12.00
2022-12-23T11:25:18.343Z,11.91
2022-12-23T11:28:06.931Z,11.87
2022-12-23T11:30:58.875Z,11.79
2022-12-23T11:34:00.806Z,11.75
2022-12-23T11:37:00.302Z,11.77
2022-12-23T11:39:52.265Z,11.67
2022-12-23T11:42:40.930Z,11.63
2022-12-23T11:45:37.211Z,11.59
2022-12-23T11:48:29.193Z,11.77
2022-12-23T11:51:25.711Z,11.65
2022-12-23T11:54:20.126Z,11.73
2022-12-23T11:57:15.571Z,11.75
2022-12-23T12:00:05.261Z,11.67
2022-12-23T12:02:55.314Z,11.85
2022-12-23T12:05:49.701Z,11.86
2022-12-23T12:08:38.386Z,11.63
2022-12-23T12:11:28.153Z,11.59
2022-12-23T12:14:31.631Z,11.71
2022-12-23T12:17:23.294Z,11.46
2022-12-23T12:20:18.278Z,11.71
2022-12-23T12:23:13.040Z,11.72
2022-12-23T12:26:17.640Z,11.73
2022-12-23T12:29:16.996Z,11.77
2022-12-23T12:32:07.253Z,11.71
2022-12-23T12:35:05.796Z,11.77
2022-12-23T12:38:00.163Z,12.04
2022-12-23T12:40:58.333Z,12.14
2022-12-23T12:44:14.585Z,11.81
2022-12-23T12:47:52.016Z,11.89
2022-12-23T12:50:31.805Z,11.89
2022-12-23T12:53:22.748Z,11.81
2022-12-23T12:56:25.963Z,11.85
2022-12-23T12:59:20.127Z,11.81
2022-12-23T13:02:29.020Z,11.89
2022-12-23T13:05:34.062Z,11.85
2022-12-23T13:08:36.032Z,11.82
2022-12-23T13:11:44.948Z,11.86
2022-12-23T13:14:57.099Z,11.83
2022-12-23T13:18:17.395Z,11.84
2022-12-23T13:21:26.965Z,11.79
2022-12-23T13:24:35.606Z,11.79
2022-12-23T13:27:38.119Z,11.80
2022-12-23T13:30:28.729Z,11.76
2022-12-23T13:33:23.914Z,11.59
2022-12-23T13:36:36.803Z,11.60
2022-12-23T13:39:37.942Z,11.56
2022-12-23T13:42:33.714Z,11.60
2022-12-23T13:45:21.795Z,11.61
2022-12-23T13:48:40.751Z,11.60
2022-12-23T13:51:32.957Z,11.47
2022-12-23T13:54:38.109Z,11.52
2022-12-23T13:57:36.500Z,11.58
2022-12-23T14:00:30.257Z,11.44
2022-12-23T14:03:24.631Z,11.56
2022-12-23T14:06:28.933Z,11.54
2022-12-23T14:09:16.688Z,11.42
2022-12-23T14:12:17.942Z,11.44
2022-12-23T14:15:26.375Z,11.47
2022-12-23T14:18:37.804Z,11.39
2022-12-23T14:21:45.688Z,11.54
2022-12-23T14:25:17.083Z,11.54
2022-12-23T14:28:20.926Z,11.61
2022-12-23T14:31:28.940Z,11.78
2022-12-23T14:34:18.528Z,11.82
2022-12-23T14:37:20.326Z,11.90
2022-12-23T14:40:34.846Z,12.03
2022-12-23T14:43:32.340Z,11.99
2022-12-23T14:46:34.105Z,11.77
2022-12-23T14:49:41.229Z,12.01
2022-12-23T14:52:48.642Z,12.08
2022-12-23T14:55:35.136Z,11.98
2022-12-23T14:58:30.902Z,12.08
2022-12-23T15:05:50.988Z,12.08
2022-12-23T15:08:40.987Z,12.16
2022-12-23T15:11:30.259Z,12.16
2022-12-23T15:14:27.510Z,12.14
2022-12-23T15:17:28.289Z,12.22
2022-12-23T15:20:19.706Z,12.23
2022-12-23T15:23:17.399Z,12.39
2022-12-23T15:26:04.938Z,12.53
2022-12-23T15:28:51.661Z,12.67
2022-12-23T15:31:42.290Z,12.76
2022-12-23T15:34:32.184Z,12.64
2022-12-23T15:37:25.562Z,12.77
2022-12-23T15:40:31.803Z,12.97
2022-12-23T15:43:20.728Z,13.02
2022-12-23T15:46:14.533Z,13.05
2022-12-23T15:49:02.024Z,13.04
2022-12-23T15:52:09.797Z,13.12
2022-12-23T15:55:11.935Z,13.20
2022-12-23T15:57:59.977Z,13.22
2022-12-23T16:00:53.491Z,13.06
2022-12-23T16:03:43.083Z,13.31
2022-12-23T16:06:33.202Z,13.39
2022-12-23T16:09:20.032Z,13.25
2022-12-23T16:12:26.975Z,13.14
2022-12-23T16:15:31.769Z,13.02
2022-12-23T16:18:24.073Z,13.03
2022-12-23T16:21:13.840Z,13.01
2022-12-23T16:24:01.795Z,12.94
2022-12-23T16:26:48.400Z,13.07
2022-12-23T16:29:34.989Z,13.01
2022-12-23T16:32:21.530Z,12.79
2022-12-23T16:35:12.571Z,13.04
2022-12-23T16:38:21.730Z,13.04
2022-12-23T16:41:08.368Z,13.01
2022-12-23T16:43:54.925Z,13.00
2022-12-23T16:46:48.369Z,13.10
2022-12-23T16:49:37.301Z,13.02
2022-12-23T16:52:24.019Z,13.06
2022-12-23T16:55:19.012Z,13.05
2022-12-23T16:58:05.337Z,13.04
2022-12-23T17:00:52.320Z,13.05
2022-12-23T17:03:39.354Z,13.14
2022-12-23T17:06:26.365Z,13.21
2022-12-23T17:09:13.564Z,13.25
2022-12-23T17:11:59.999Z,13.18
2022-12-23T17:14:46.595Z,13.13
2022-12-23T17:17:33.024Z,12.97
2022-12-23T17:20:21.552Z,12.89
2022-12-23T17:23:24.087Z,12.68
2022-12-23T17:26:10.265Z,12.56
2022-12-23T17:28:56.787Z,12.40
2022-12-23T17:31:44.548Z,12.23
2022-12-23T17:34:30.998Z,12.16
2022-12-23T17:37:19.832Z,12.10
2022-12-23T17:40:07.591Z,11.96
2022-12-23T17:42:53.884Z,11.91
2022-12-23T17:45:40.439Z,11.78
2022-12-23T17:48:31.741Z,11.83
2022-12-23T17:51:23.085Z,11.72
2022-12-23T17:54:23.851Z,11.75
2022-12-23T17:57:22.680Z,11.65
2022-12-23T18:00:09.507Z,11.55
2022-12-23T18:02:58.319Z,11.49
2022-12-23T18:05:44.628Z,11.44
2022-12-23T18:08:31.012Z,11.31
2022-12-23T18:11:36.539Z,11.15
2022-12-23T18:14:31.729Z,11.36
2022-12-23T18:17:18.790Z,11.35
2022-12-23T18:20:05.683Z,11.41
2022-12-23T18:22:53.862Z,11.29
2022-12-23T18:25:40.474Z,11.37
2022-12-23T18:28:27.056Z,11.25
2022-12-23T18:31:19.309Z,11.25
2022-12-23T18:34:06.099Z,11.22
2022-12-23T18:36:52.759Z,11.33
2022-12-23T18:39:39.257Z,11.26
2022-12-23T18:42:25.812Z,11.19
2022-12-23T18:45:37.056Z,11.19
2022-12-23T18:48:23.621Z,11.20
2022-12-23T18:51:18.777Z,11.40
2022-12-23T18:54:06.010Z,11.39
2022-12-23T18:56:52.339Z,11.43
2022-12-23T18:59:39.646Z,11.44
2022-12-23T19:02:25.795Z,11.49
2022-12-23T19:05:29.788Z,11.46
2022-12-23T19:08:21.873Z,11.44
2022-12-23T19:11:17.797Z,11.64
2022-12-23T19:14:04.282Z,11.60
2022-12-23T19:16:52.237Z,11.71
2022-12-23T19:19:38.774Z,11.71
2022-12-23T19:22:25.458Z,11.70
2022-12-23T19:25:15.879Z,11.72
2022-12-23T19:28:02.437Z,11.66
2022-12-23T19:30:49.168Z,11.53
2022-12-23T19:33:40.276Z,11.52
2022-12-23T19:36:26.870Z,11.54
2022-12-23T19:39:16.177Z,11.52
2022-12-23T19:42:03.475Z,11.53
2022-12-23T19:44:49.687Z,11.45
2022-12-23T19:47:38.945Z,11.54
2022-12-23T19:50:27.078Z,11.55
2022-12-23T19:53:13.427Z,11.51
2022-12-23T19:56:11.118Z,11.58
2022-12-23T19:58:58.205Z,11.63
2022-12-23T20:01:44.801Z,11.68
2022-12-23T20:04:32.145Z,11.61
2022-12-23T20:07:18.740Z,11.68
2022-12-23T20:10:05.962Z,11.77
2022-12-23T20:12:53.115Z,11.78
2022-12-23T20:15:41.083Z,11.78
2022-12-23T20:18:27.578Z,11.77
2022-12-23T20:21:13.774Z,11.79
2022-12-23T20:24:00.655Z,11.75
2022-12-23T20:26:48.452Z,11.67
2022-12-23T20:29:36.241Z,11.59
2022-12-23T20:32:24.375Z,11.33
2022-12-23T20:35:12.006Z,11.48
2022-12-23T20:37:58.890Z,11.48
2022-12-23T20:40:45.152Z,11.39
2022-12-23T20:43:34.209Z,11.50
2022-12-23T20:46:22.609Z,11.57
2022-12-23T20:49:09.088Z,11.52
2022-12-23T20:51:55.435Z,11.40
2022-12-23T20:54:41.912Z,11.45
2022-12-23T20:57:28.559Z,11.47
2022-12-23T21:00:15.668Z,11.52
2022-12-23T21:03:10.032Z,11.49
2022-12-23T21:05:57.439Z,11.41
2022-12-23T21:08:43.969Z,11.35
2022-12-23T21:11:33.632Z,11.37
2022-12-23T21:14:19.841Z,11.34
2022-12-23T21:17:06.099Z,11.29
2022-12-23T21:19:52.350Z,11.19
2022-12-23T21:22:38.722Z,11.24
2022-12-23T21:25:25.039Z,11.43
2022-12-23T21:28:11.247Z,11.32
2022-12-23T21:30:57.796Z,11.52
2022-12-23T21:33:45.780Z,11.46
2022-12-23T21:36:37.768Z,11.53
2022-12-23T21:39:23.987Z,11.47
2022-12-23T21:42:10.124Z,11.31
2022-12-23T21:44:56.659Z,11.41
2022-12-23T21:47:43.146Z,11.38
2022-12-23T21:50:29.950Z,11.51
2022-12-23T21:53:16.678Z,11.47
2022-12-23T21:56:05.420Z,11.45
2022-12-23T21:59:00.237Z,11.48
2022-12-23T22:01:46.644Z,11.53
2022-12-23T22:04:33.520Z,11.54
2022-12-23T22:07:20.180Z,11.53
2022-12-23T22:10:07.646Z,11.55
2022-12-23T22:12:53.978Z,11.56
2022-12-23T22:15:42.180Z,11.27
2022-12-23T22:18:28.442Z,11.59
2022-12-23T22:21:20.034Z,11.58
2022-12-23T22:24:07.341Z,11.51
2022-12-23T22:26:53.888Z,11.49
2022-12-23T22:29:41.368Z,11.64
2022-12-23T22:32:27.853Z,11.70
2022-12-23T22:35:14.573Z,11.63
2022-12-23T22:38:01.059Z,11.57
2022-12-23T22:40:51.958Z,11.58
2022-12-23T22:43:38.538Z,11.59
2022-12-23T22:46:25.973Z,11.62
2022-12-23T22:49:13.017Z,11.51
2022-12-23T22:51:59.607Z,11.50
2022-12-23T22:54:45.945Z,11.52
2022-12-23T22:57:32.914Z,11.61
2022-12-23T23:00:19.289Z,11.53
2022-12-23T23:03:05.556Z,11.55
2022-12-23T23:06:04.408Z,11.53
2022-12-23T23:08:50.951Z,11.55
2022-12-23T23:11:37.195Z,11.60
2022-12-23T23:14:23.461Z,11.55
2022-12-23T23:17:09.806Z,11.57
2022-12-23T23:19:56.034Z,11.59
2022-12-23T23:22:42.401Z,11.45
2022-12-23T23:25:29.261Z,11.61
2022-12-23T23:28:15.989Z,11.62
2022-12-23T23:31:32.088Z,11.60
2022-12-23T23:34:09.153Z,11.69
2022-12-23T23:36:55.860Z,11.67
2022-12-23T23:39:42.058Z,11.70
2022-12-23T23:42:28.311Z,11.62
2022-12-23T23:45:14.822Z,11.59
2022-12-23T23:48:01.060Z,11.68
2022-12-23T23:50:48.319Z,11.72
2022-12-23T23:53:34.884Z,11.71
2022-12-23T23:56:25.331Z,11.76
2022-12-23T23:59:12.599Z,11.69
